createdAt,value
2022-10-14T00:04:26.091Z,7.86
2022-10-14T00:09:29.327Z,7.85
2022-10-14T00:14:32.574Z,7.82
2022-10-14T00:19:36.676Z,7.78
2022-10-14T00:24:40.270Z,7.81
2022-10-14T00:29:43.549Z,7.84
2022-10-14T00:34:46.804Z,7.86
2022-10-14T00:39:53.480Z,7.88
2022-10-14T00:45:14.311Z,7.91
2022-10-14T00:50:20.082Z,7.94
2022-10-14T00:55:23.627Z,7.93
2022-10-14T01:00:27.213Z,7.92
2022-10-14T01:05:34.104Z,7.83
2022-10-14T01:10:43.505Z,7.73
2022-10-14T01:16:09.900Z,7.64
2022-10-14T01:21:21.253Z,7.55
2022-10-14T01:26:56.341Z,7.48
2022-10-14T01:32:07.568Z,7.46
2022-10-14T01:37:15.846Z,7.40
2022-10-14T01:42:23.935Z,7.36
2022-10-14T01:47:30.725Z,7.27
2022-10-14T01:52:46.708Z,7.18
2022-10-14T01:57:52.119Z,7.10
2022-10-14T02:02:55.903Z,7.15
2022-10-14T02:08:08.811Z,7.11
2022-10-14T02:13:47.341Z,7.04
2022-10-14T02:19:09.937Z,6.93
2022-10-14T02:24:13.087Z,6.86
2022-10-14T02:29:19.783Z,6.84
2022-10-14T02:34:24.614Z,6.93
2022-10-14T02:39:35.915Z,6.99
2022-10-14T02:44:53.453Z,7.02
2022-10-14T02:49:56.854Z,7.07
2022-10-14T02:55:00.710Z,7.16
2022-10-14T03:00:06.187Z,7.22
2022-10-14T03:05:10.363Z,7.29
2022-10-14T03:10:13.742Z,7.33
2022-10-14T03:15:17.160Z,7.35
2022-10-14T03:20:20.615Z,7.35
2022-10-14T03:25:28.329Z,7.32
2022-10-14T03:30:45.418Z,7.27
2022-10-14T03:35:52.713Z,7.24
2022-10-14T03:41:00.748Z,7.22
2022-10-14T03:46:04.992Z,7.16
2022-10-14T03:51:09.069Z,7.09
2022-10-14T03:56:12.824Z,7.03
2022-10-14T04:01:17.472Z,7.04
2022-10-14T04:06:39.373Z,7.06
2022-10-14T04:11:43.168Z,7.06
2022-10-14T04:16:51.863Z,7.04
2022-10-14T04:21:55.979Z,7.00
2022-10-14T04:27:03.996Z,6.95
2022-10-14T04:32:30.229Z,6.92
2022-10-14T04:37:33.722Z,6.90
2022-10-14T04:42:42.736Z,6.95
2022-10-14T04:47:54.058Z,6.91
2022-10-14T04:53:02.124Z,6.92
2022-10-14T04:58:05.418Z,6.94
2022-10-14T05:03:13.661Z,6.98
2022-10-14T05:08:23.415Z,7.01
2022-10-14T05:13:31.071Z,7.05
2022-10-14T05:18:40.492Z,7.13
2022-10-14T05:23:51.373Z,7.19
2022-10-14T05:28:54.970Z,7.26
2022-10-14T05:33:58.598Z,7.31
2022-10-14T05:39:02.855Z,7.41
2022-10-14T05:44:11.753Z,7.51
2022-10-14T05:49:15.314Z,7.59
2022-10-14T05:54:19.353Z,7.67
2022-10-14T05:59:24.039Z,7.76
2022-10-14T06:04:29.163Z,7.87
2022-10-14T06:09:39.990Z,7.99
2022-10-14T06:14:49.653Z,8.14
2022-10-14T06:20:07.552Z,8.28
2022-10-14T06:25:11.120Z,8.41
2022-10-14T06:30:14.829Z,8.50
2022-10-14T06:35:21.365Z,8.63
2022-10-14T06:40:24.800Z,8.80
2022-10-14T06:45:28.047Z,8.97
2022-10-14T06:50:31.334Z,9.13
2022-10-14T06:55:35.107Z,9.26
2022-10-14T07:00:43.239Z,9.34
2022-10-14T07:05:51.950Z,9.47
2022-10-14T07:10:58.145Z,9.58
2022-10-14T07:16:07.505Z,9.72
2022-10-14T07:21:10.876Z,9.83
2022-10-14T07:26:17.245Z,10.03
2022-10-14T07:31:26.590Z,10.29
2022-10-14T07:36:32.724Z,10.51
2022-10-14T07:41:38.223Z,10.81
2022-10-14T07:46:44.864Z,11.25
2022-10-14T07:51:49.356Z,11.69
2022-10-14T07:56:53.886Z,12.18
2022-10-14T08:01:57.611Z,12.63
2022-10-14T08:07:01.581Z,12.93
2022-10-14T08:12:06.260Z,13.14
2022-10-14T08:17:10.209Z,13.30
2022-10-14T08:22:16.932Z,13.48
2022-10-14T08:27:20.151Z,13.72
2022-10-14T08:32:24.857Z,14.00
2022-10-14T08:37:29.687Z,14.21
2022-10-14T08:42:46.340Z,14.48
2022-10-14T08:47:54.070Z,14.78
2022-10-14T08:53:09.974Z,15.20
2022-10-14T08:58:19.724Z,15.55
2022-10-14T09:03:35.231Z,15.76
2022-10-14T09:08:45.160Z,15.84
2022-10-14T09:13:56.710Z,15.89
2022-10-14T09:19:02.794Z,16.04
2022-10-14T09:24:21.653Z,16.19
2022-10-14T09:29:28.987Z,16.19
2022-10-14T09:34:38.875Z,16.40
2022-10-14T09:39:46.007Z,16.66
2022-10-14T09:45:13.563Z,16.54
2022-10-14T09:50:52.203Z,16.68
2022-10-14T09:55:58.831Z,16.98
2022-10-14T10:01:06.368Z,17.20
2022-10-14T10:06:15.216Z,17.17
2022-10-14T10:11:39.978Z,17.14
2022-10-14T10:16:43.286Z,17.14
2022-10-14T10:21:48.794Z,16.99
2022-10-14T10:26:52.477Z,16.94
2022-10-14T10:32:06.880Z,17.04
2022-10-14T10:43:43.489Z,17.27
2022-10-14T10:49:08.814Z,17.37
2022-10-14T10:54:27.331Z,17.54
2022-10-14T10:59:59.810Z,17.71
2022-10-14T11:05:23.719Z,17.91
2022-10-14T11:11:08.366Z,18.14
2022-10-14T11:16:30.001Z,18.25
2022-10-14T11:21:44.749Z,18.28
2022-10-14T11:27:09.427Z,18.24
2022-10-14T11:32:33.983Z,18.25
2022-10-14T11:37:58.606Z,18.54
2022-10-14T11:43:13.933Z,18.86
2022-10-14T11:48:50.867Z,18.98
2022-10-14T11:54:08.585Z,18.88
2022-10-14T11:59:40.629Z,18.84
2022-10-14T12:04:48.373Z,19.23
2022-10-14T12:09:59.080Z,19.54
2022-10-14T12:15:08.056Z,19.67
2022-10-14T12:20:49.637Z,19.62
2022-10-14T12:26:20.053Z,19.46
2022-10-14T12:31:28.150Z,19.40
2022-10-14T12:36:32.368Z,19.46
2022-10-14T12:41:41.308Z,19.50
2022-10-14T12:46:49.984Z,19.35
2022-10-14T12:51:55.644Z,19.36
2022-10-14T12:57:26.277Z,19.29
2022-10-14T13:02:48.810Z,19.34
2022-10-14T13:08:17.247Z,19.33
2022-10-14T13:13:38.695Z,19.25
2022-10-14T13:18:44.982Z,19.22
2022-10-14T13:23:50.512Z,19.18
2022-10-14T13:29:03.066Z,19.43
2022-10-14T13:34:44.106Z,19.35
2022-10-14T13:39:47.474Z,18.96
2022-10-14T13:45:01.867Z,18.77
2022-10-14T13:50:05.783Z,18.72
2022-10-14T13:55:21.290Z,18.74
2022-10-14T14:00:42.049Z,18.76
2022-10-14T14:05:47.911Z,18.85
2022-10-14T14:11:15.691Z,18.92
2022-10-14T14:16:22.952Z,18.90
2022-10-14T14:21:27.931Z,18.82
2022-10-14T14:26:38.866Z,18.58
2022-10-14T14:37:34.290Z,18.14
2022-10-14T14:42:37.322Z,17.96
2022-10-14T14:47:42.182Z,17.78
2022-10-14T14:52:48.200Z,17.63
2022-10-14T14:57:59.529Z,17.61
2022-10-14T15:03:04.042Z,17.62
2022-10-14T15:08:25.746Z,17.53
2022-10-14T15:13:43.634Z,17.39
2022-10-14T15:19:02.377Z,17.12
2022-10-14T15:24:16.379Z,16.84
2022-10-14T15:29:28.087Z,16.63
2022-10-14T15:34:31.701Z,16.44
2022-10-14T15:39:35.614Z,16.24
2022-10-14T15:44:39.083Z,16.00
2022-10-14T15:49:46.688Z,15.77
2022-10-14T15:54:53.873Z,15.46
2022-10-14T15:59:59.353Z,15.17
2022-10-14T16:05:19.414Z,14.84
2022-10-14T16:10:34.815Z,14.48
2022-10-14T16:15:56.302Z,14.10
2022-10-14T16:21:03.052Z,13.76
2022-10-14T16:26:09.191Z,13.48
2022-10-14T16:31:14.750Z,13.25
2022-10-14T16:36:32.116Z,13.00
2022-10-14T16:41:36.730Z,12.75
2022-10-14T16:47:24.381Z,12.47
2022-10-14T16:53:02.252Z,12.18
2022-10-14T16:58:25.392Z,11.91
2022-10-14T17:03:31.819Z,11.76
2022-10-14T17:08:41.386Z,11.67
2022-10-14T17:13:54.072Z,11.56
2022-10-14T17:19:00.953Z,11.44
2022-10-14T17:24:05.407Z,11.30
2022-10-14T17:29:15.634Z,11.18
2022-10-14T17:34:35.090Z,11.03
2022-10-14T17:39:42.292Z,10.89
2022-10-14T17:44:46.625Z,10.75
2022-10-14T17:49:51.028Z,10.58
2022-10-14T17:55:01.429Z,10.42
2022-10-14T18:00:17.752Z,10.30
2022-10-14T18:05:21.119Z,10.21
2022-10-14T18:10:26.597Z,10.14
2022-10-14T18:15:31.496Z,10.04
2022-10-14T18:20:41.483Z,9.99
2022-10-14T18:25:45.801Z,9.94
2022-10-14T18:30:49.234Z,9.94
2022-10-14T18:36:01.330Z,9.83
2022-10-14T18:41:10.746Z,9.71
2022-10-14T18:46:21.827Z,9.65
2022-10-14T18:51:28.469Z,9.60
2022-10-14T18:56:37.604Z,9.52
2022-10-14T19:01:44.363Z,9.43
2022-10-14T19:06:50.762Z,9.36
2022-10-14T19:12:03.420Z,9.30
2022-10-14T19:17:09.960Z,9.24
2022-10-14T19:22:17.858Z,9.16
2022-10-14T19:27:21.962Z,9.06
2022-10-14T19:32:27.252Z,8.96
2022-10-14T19:37:45.572Z,8.89
2022-10-14T19:42:49.921Z,8.79
2022-10-14T19:47:56.972Z,8.72
2022-10-14T19:53:07.174Z,8.69
2022-10-14T19:58:27.995Z,8.68
2022-10-14T20:03:51.718Z,8.62
2022-10-14T20:09:08.328Z,8.56
2022-10-14T20:14:16.530Z,8.50
2022-10-14T20:19:22.160Z,8.49
2022-10-14T20:24:26.299Z,8.47
2022-10-14T20:29:36.138Z,8.48
2022-10-14T20:34:42.212Z,8.48
2022-10-14T20:39:49.977Z,8.48
2022-10-14T20:44:54.238Z,8.47
2022-10-14T20:50:01.300Z,8.41
2022-10-14T20:55:07.696Z,8.40
2022-10-14T21:00:21.862Z,8.38
2022-10-14T21:05:31.558Z,8.38
2022-10-14T21:10:40.939Z,8.37
2022-10-14T21:15:56.031Z,8.41
2022-10-14T21:21:05.398Z,8.45
2022-10-14T21:26:14.096Z,8.43
2022-10-14T21:31:21.125Z,8.49
2022-10-14T21:36:25.514Z,8.51
2022-10-14T21:41:30.828Z,8.46
2022-10-14T21:46:45.180Z,8.47
2022-10-14T21:52:00.465Z,8.52
2022-10-14T21:57:15.407Z,8.63
2022-10-14T22:02:19.505Z,8.75
2022-10-14T22:07:25.574Z,8.84
2022-10-14T22:12:31.537Z,8.93
2022-10-14T22:17:36.731Z,9.03
2022-10-14T22:22:47.172Z,9.09
2022-10-14T22:27:55.631Z,9.08
2022-10-14T22:33:03.225Z,9.11
2022-10-14T22:38:35.772Z,9.12
2022-10-14T22:43:54.296Z,9.17
2022-10-14T22:49:04.191Z,9.22
2022-10-14T22:54:18.066Z,9.25
2022-10-14T22:59:25.933Z,9.25
2022-10-14T23:04:32.533Z,9.23
2022-10-14T23:09:36.573Z,9.26
2022-10-14T23:14:40.482Z,9.25
2022-10-14T23:19:44.295Z,9.23
2022-10-14T23:24:48.171Z,9.17
2022-10-14T23:29:53.285Z,9.11
2022-10-14T23:34:57.414Z,9.10
2022-10-14T23:40:02.013Z,9.11
2022-10-14T23:45:06.023Z,9.17
2022-10-14T23:50:09.394Z,9.24
2022-10-14T23:55:13.476Z,9.36
